Portada
METAR-TAF:

METAR-TAF

Aeroports :

Oruro, Bolívia

latitud: 17-58S, longitud: 067-04W, altitud: 3072 m

Observació

L'informe es va fer fa 14 hores i 19 minuts, a les 18:00 UTC
Vent 8 kt del Nord/Nord-Est
Temperatura 20°C
Humitat 37%
Pressió 1032 hPa
Visibilitat 10 km o més
Cel ennuvolat a una alçada de 2000 ft

METAR: SLOR 141800Z 03008KT 9999 BKN020 20/05 Q1032

Hora: 04:19 (08:19 UTC)

Pronòstic

L'informe es va fer fa 10 hores i 19 minuts, a les 22:00 UTC
Pronòstic vàlid del 14 a les 00 UTC al 14 a les 24 UTC
Vent 8 kt del Sud-Est
Visibilitat 10 km o més
Núvols disperses a una alçada de 2000 ft
Temporalment
l' 13 a les 17 UTC al 13 a les 21 UTC
Visibilitat: 8000 m
Núvols disperses a una alçada de 1700 ft
Escasses núvols a una alçada de 2000 ft, Cumulonimbus.
xàfecs de pluja

TAF: SLOR 132200Z 1400/1424 13008KT 9999 SCT020 TX22/1420Z TN06/1410Z TEMPO 1317/1321 8000 SHRA SCT017 FEW020CB

Observacions i pronòstics meteorològics de més de 4000 aeroports (METAR i TAF).

Les estacions disponibles són els punts grocs i vermells al mapa.

Posi el ratolí al punt desitjat per veure el nom de l'estació.

Feu clic per veure les observacions i els pronòstics meteorològics.

Per canviar el mapa: feu clic els botons verds amb una creu de color negre per apropar; al botó verd amb un guió per allunyar la imatge; o en les fletxes verdes per a mapes adjacents.


METAR-TAF: